Austin, Kansas
Current Conditions -  °F | °C
As of 9:52 PM on Tuesday 25 Nov 2014 (Local Time) from KCNU Reporting Station
Broken Clouds Broken Clouds  
Wind Chill: 30°   Ceiling: 11000
Heat Index: 36°   Visibility: 10mi
Dew Point: 25°   Wind: 8mph
Humidity: 64%   Direction: 160°SSE
Pressure: 30.06"   Gusts: NA
Location:  37.6378°N, 95.4622°W
Report Text: KCNU 260352Z AUTO 16007KT 10SM BKN110 02/M04 A3006 RMK AO2 SLP184 T00221039
Loading
Personal Weather Stations






























Interactive Weather Map New forecast layout! Learn more

10-Day Weather Forecast

Advertisements
Track Severe Weather on mobile